createdAt,value
2019-05-09T00:00:40.659Z,971.72
2019-05-09T00:01:40.665Z,971.59
2019-05-09T00:02:40.652Z,971.36
2019-05-09T00:03:40.631Z,971.4
2019-05-09T00:04:40.630Z,971.3
2019-05-09T00:05:40.642Z,970.71
2019-05-09T00:06:40.628Z,970.46
2019-05-09T00:07:40.706Z,970.12
2019-05-09T00:08:40.642Z,969.95
2019-05-09T00:09:40.625Z,969.72
2019-05-09T00:10:41.931Z,969.53
2019-05-09T00:11:40.593Z,968.92
2019-05-09T00:12:40.615Z,968.18
2019-05-09T00:13:40.591Z,968.06
2019-05-09T00:14:40.683Z,966.91
2019-05-09T00:15:40.605Z,966.35
2019-05-09T00:16:40.615Z,965.35
2019-05-09T00:17:40.601Z,965.38
2019-05-09T00:18:40.641Z,965.43
2019-05-09T00:19:40.598Z,964.72
2019-05-09T00:20:40.604Z,964.7
2019-05-09T00:21:40.600Z,964.7
2019-05-09T00:22:40.614Z,963.76
2019-05-09T00:23:40.619Z,963.73
2019-05-09T00:24:40.600Z,962.93
2019-05-09T00:25:40.611Z,962.73
2019-05-09T00:26:40.596Z,962.24
2019-05-09T00:27:40.605Z,962.58
2019-05-09T00:28:40.775Z,962.37
2019-05-09T00:29:40.617Z,962.68
2019-05-09T00:30:40.640Z,962.72
2019-05-09T00:31:40.627Z,962.85
2019-05-09T00:32:40.597Z,963.08
2019-05-09T00:33:40.625Z,962.61
2019-05-09T00:34:40.618Z,962.64
2019-05-09T00:35:40.632Z,962.31
2019-05-09T00:36:40.629Z,962.64
2019-05-09T00:37:40.636Z,962.04
2019-05-09T00:38:40.635Z,962
2019-05-09T00:39:40.626Z,961.07
2019-05-09T00:40:52.862Z,960.91
2019-05-09T00:41:40.642Z,960.27
2019-05-09T00:42:40.621Z,960.3
2019-05-09T00:43:40.646Z,960.03
2019-05-09T00:44:40.616Z,960.05
2019-05-09T00:45:40.640Z,960.1
2019-05-09T00:46:42.920Z,960.33
2019-05-09T00:47:40.634Z,960.03
2019-05-09T00:48:40.660Z,959.81
2019-05-09T00:49:40.670Z,959.78
2019-05-09T00:50:40.633Z,959.6
2019-05-09T00:51:40.674Z,959.36
2019-05-09T00:52:42.549Z,959.36
2019-05-09T00:53:40.657Z,958.92
2019-05-09T00:54:40.659Z,957.76
2019-05-09T00:55:40.671Z,958.91
2019-05-09T00:56:40.651Z,958.93
2019-05-09T00:57:40.675Z,958.63
2019-05-09T00:58:40.686Z,958.63
2019-05-09T00:59:40.668Z,958.23
2019-05-09T01:00:40.639Z,957.86
2019-05-09T01:01:40.646Z,957.38
2019-05-09T01:02:40.652Z,956.7
2019-05-09T01:03:40.673Z,956.47
2019-05-09T01:04:40.666Z,955.79
2019-05-09T01:05:40.673Z,955.36
2019-05-09T01:06:40.671Z,954.9
2019-05-09T01:07:42.883Z,954.52
2019-05-09T01:08:40.653Z,954.68
2019-05-09T01:09:40.656Z,954.06
2019-05-09T01:10:40.663Z,954.38
2019-05-09T01:11:40.665Z,954.36
2019-05-09T01:12:40.694Z,953.94
2019-05-09T01:13:40.663Z,953.38
2019-05-09T01:14:40.681Z,953.89
2019-05-09T01:15:40.706Z,953.49
2019-05-09T01:16:40.695Z,953.73
2019-05-09T01:17:40.664Z,953.2
2019-05-09T01:18:40.689Z,953.16
2019-05-09T01:19:40.692Z,952.83
2019-05-09T01:20:40.678Z,952.38
2019-05-09T01:21:40.725Z,952.07
2019-05-09T01:22:40.680Z,952.5
2019-05-09T01:23:40.680Z,952.54
2019-05-09T01:24:40.709Z,952.26
2019-05-09T01:25:40.692Z,952
2019-05-09T01:26:40.699Z,951.89
2019-05-09T01:27:42.938Z,951.04
2019-05-09T01:28:40.713Z,951.24
2019-05-09T01:29:40.720Z,950.99
2019-05-09T01:30:40.688Z,950.75
2019-05-09T01:35:08.732Z,947.58
2019-05-09T01:36:08.719Z,947.59
2019-05-09T01:37:08.724Z,946.76
2019-05-09T01:38:08.709Z,946.26
2019-05-09T01:39:08.722Z,945.55
2019-05-09T01:40:08.701Z,945.52
2019-05-09T01:41:22.748Z,945.37
2019-05-09T01:42:08.736Z,944.64
2019-05-09T01:43:08.700Z,944.39
2019-05-09T01:44:08.752Z,943.57
2019-05-09T01:45:08.738Z,942.99
2019-05-09T01:46:08.760Z,942.72
2019-05-09T01:47:08.746Z,942.38
2019-05-09T01:48:08.734Z,942.05
2019-05-09T01:49:08.722Z,942.12
2019-05-09T01:50:08.714Z,941.66
2019-05-09T01:51:08.713Z,941.55
2019-05-09T01:52:08.745Z,941.02
2019-05-09T01:53:08.746Z,940.55
2019-05-09T01:54:08.730Z,940.75
2019-05-09T01:55:08.720Z,940.77
2019-05-09T01:56:08.724Z,940.26
2019-05-09T01:57:08.753Z,940.42
2019-05-09T01:58:08.759Z,940.14
2019-05-09T01:59:08.750Z,939.62
2019-05-09T02:00:08.731Z,939.38
2019-05-09T02:01:08.739Z,938.71
2019-05-09T02:02:09.119Z,938.6
2019-05-09T02:03:08.740Z,937.63
2019-05-09T02:04:08.762Z,937.39
2019-05-09T02:05:08.745Z,937
2019-05-09T02:06:08.759Z,937.02
2019-05-09T02:07:08.757Z,936.27
2019-05-09T02:08:08.767Z,935.8
2019-05-09T02:09:08.776Z,935.31
2019-05-09T02:10:08.760Z,934.73
2019-05-09T02:11:08.772Z,934.66
2019-05-09T02:12:08.791Z,934.68
2019-05-09T02:13:08.786Z,934.72
2019-05-09T02:14:17.020Z,933.05
2019-05-09T02:15:08.805Z,934.89
2019-05-09T02:16:08.839Z,935.07
2019-05-09T02:17:08.825Z,935.1
2019-05-09T02:18:08.816Z,935.17
2019-05-09T02:19:08.826Z,934.86
2019-05-09T02:20:08.830Z,934.97
2019-05-09T02:21:11.434Z,934.98
2019-05-09T02:22:08.799Z,935.21
2019-05-09T02:23:08.769Z,935.16
2019-05-09T02:24:08.777Z,935.17
2019-05-09T02:25:08.801Z,934.95
2019-05-09T02:26:08.810Z,934.85
2019-05-09T02:27:08.797Z,934.47
2019-05-09T02:28:08.926Z,934.15
2019-05-09T02:29:08.769Z,933.93
2019-05-09T02:30:08.793Z,933.51
2019-05-09T02:31:08.775Z,933.55
2019-05-09T02:32:08.786Z,933.68
2019-05-09T02:33:08.833Z,933.18
2019-05-09T02:34:08.785Z,933.18
2019-05-09T02:35:08.822Z,932.83
2019-05-09T02:36:09.707Z,932.72
2019-05-09T02:37:09.375Z,932.54
2019-05-09T02:38:09.537Z,931.86
2019-05-09T02:39:09.271Z,931
2019-05-09T02:40:09.924Z,931.36
2019-05-09T02:41:08.934Z,930.75
2019-05-09T02:42:12.797Z,930.69
2019-05-09T02:43:09.870Z,930.43
2019-05-09T02:44:20.800Z,929.89
2019-05-09T02:45:08.799Z,929.28
2019-05-09T02:46:09.641Z,928.97
2019-05-09T02:47:09.266Z,928.5
2019-05-09T02:48:09.513Z,928.13
2019-05-09T02:49:09.145Z,928.11
2019-05-09T02:50:09.525Z,927.77
2019-05-09T02:51:09.320Z,927.2
2019-05-09T02:52:09.057Z,927.19
2019-05-09T02:53:08.897Z,926.67
2019-05-09T02:54:09.744Z,926.33
2019-05-09T02:55:10.063Z,925.87
2019-05-09T02:56:09.299Z,925.18
2019-05-09T02:57:09.406Z,924.84
2019-05-09T02:58:08.848Z,924.22
2019-05-09T02:59:09.784Z,924.29
2019-05-09T03:00:08.964Z,924.19
2019-05-09T03:01:08.851Z,924.32
2019-05-09T03:02:09.442Z,924.07
2019-05-09T03:03:09.373Z,924.15
2019-05-09T03:04:08.823Z,924.32
2019-05-09T03:05:09.058Z,923.97
2019-05-09T03:06:09.229Z,923.84
2019-05-09T03:07:09.647Z,924.01
2019-05-09T03:08:09.446Z,923.94
2019-05-09T03:09:09.241Z,924.13
2019-05-09T03:10:09.067Z,924.18
2019-05-09T03:11:09.957Z,923.44
2019-05-09T03:12:22.390Z,923.63
2019-05-09T03:13:09.460Z,923.37
2019-05-09T03:14:09.371Z,923.73
2019-05-09T03:15:09.273Z,923.21
2019-05-09T03:16:08.927Z,923.15
2019-05-09T03:17:09.226Z,923.09
2019-05-09T03:18:09.322Z,922.99
2019-05-09T03:19:09.317Z,922.63
2019-05-09T03:20:09.505Z,922.59
2019-05-09T03:21:09.338Z,922.5
2019-05-09T03:22:08.897Z,922.36
2019-05-09T03:23:09.365Z,922.24
2019-05-09T03:24:09.936Z,922.43
2019-05-09T03:25:09.232Z,922.67
2019-05-09T03:26:09.195Z,922.91
2019-05-09T03:27:08.892Z,922.94
2019-05-09T03:28:09.587Z,923.38
2019-05-09T03:29:09.248Z,923
2019-05-09T03:30:11.891Z,923.33
2019-05-09T03:31:09.592Z,923.34
2019-05-09T03:32:09.443Z,924.07
2019-05-09T03:33:10.207Z,923.64
2019-05-09T03:34:09.525Z,924.17
2019-05-09T03:35:08.887Z,924.31
2019-05-09T03:36:08.895Z,923.98
2019-05-09T03:37:08.977Z,924.26
2019-05-09T03:38:08.882Z,923.91
2019-05-09T03:39:09.156Z,923.67
2019-05-09T03:40:08.912Z,924.02
2019-05-09T03:41:09.027Z,923.69
2019-05-09T03:42:08.909Z,923.57
2019-05-09T03:43:08.895Z,923.66
2019-05-09T03:44:08.909Z,923.62
2019-05-09T03:45:08.888Z,923.85
2019-05-09T03:46:08.925Z,923.8
2019-05-09T03:47:08.906Z,924.17
2019-05-09T03:48:08.926Z,923.77
2019-05-09T03:49:08.894Z,923.84
2019-05-09T03:50:08.902Z,923.88
2019-05-09T03:51:08.914Z,923.19
2019-05-09T03:52:08.954Z,923.54
2019-05-09T03:53:08.982Z,923.17
2019-05-09T03:54:08.944Z,923.39
2019-05-09T03:55:08.911Z,922.77
2019-05-09T03:56:08.938Z,922.93
2019-05-09T04:02:49.099Z,919
2019-05-09T04:03:49.064Z,917.89
2019-05-09T04:04:49.077Z,917.59
2019-05-09T04:05:58.580Z,916.93
2019-05-09T04:06:49.067Z,916.2
2019-05-09T04:07:49.089Z,915.43
2019-05-09T04:08:49.075Z,915.07
2019-05-09T04:09:49.090Z,914.65
2019-05-09T04:10:50.138Z,913.99
2019-05-09T04:11:49.076Z,913.2
2019-05-09T04:12:55.613Z,912
2019-05-09T04:13:49.108Z,909.96
2019-05-09T04:14:49.111Z,909.55
2019-05-09T04:15:49.097Z,908.5
2019-05-09T04:16:49.104Z,907.3
2019-05-09T04:21:18.392Z,905.99
2019-05-09T04:22:18.503Z,905.32
2019-05-09T04:23:18.773Z,905.76
2019-05-09T04:24:18.334Z,905.81
2019-05-09T04:25:18.335Z,905.19
2019-05-09T04:26:18.364Z,904.77
2019-05-09T04:27:18.350Z,905.38
2019-05-09T04:28:18.342Z,905.34
2019-05-09T04:29:18.519Z,905.73
2019-05-09T04:30:18.394Z,906.37
2019-05-09T04:31:18.430Z,907.02
2019-05-09T04:32:18.393Z,907.61
2019-05-09T04:33:18.377Z,908.08
2019-05-09T04:34:18.503Z,909.03
2019-05-09T04:35:18.383Z,909.1
2019-05-09T04:36:18.410Z,909.94
2019-05-09T04:37:18.383Z,910.14
2019-05-09T04:39:41.366Z,911.44
2019-05-09T04:40:44.666Z,911.79
2019-05-09T04:41:41.384Z,911.72
2019-05-09T04:42:44.381Z,912.39
2019-05-09T04:43:41.332Z,912.11
2019-05-09T04:44:41.367Z,912.37
2019-05-09T04:45:41.896Z,912.37
2019-05-09T04:46:41.364Z,912.11
2019-05-09T04:47:43.406Z,912.7
2019-05-09T04:48:41.373Z,912.7
2019-05-09T04:49:45.078Z,913.03
2019-05-09T04:50:41.366Z,913.38
2019-05-09T04:51:41.372Z,913.32
2019-05-09T04:52:41.356Z,913.65
2019-05-09T04:53:41.353Z,913.55
2019-05-09T04:54:41.376Z,913.7
2019-05-09T04:55:41.376Z,913.66
2019-05-09T04:56:41.403Z,914.1
2019-05-09T04:57:41.378Z,914.48
2019-05-09T04:58:41.354Z,914.9
2019-05-09T04:59:41.362Z,915.76
2019-05-09T05:00:41.388Z,915.88
2019-05-09T05:01:41.363Z,916.83
2019-05-09T05:02:41.390Z,917.39
2019-05-09T05:03:41.375Z,918.05
2019-05-09T05:04:41.386Z,918.5
2019-05-09T05:05:41.366Z,918.85
2019-05-09T05:06:41.394Z,919.9
2019-05-09T05:07:41.401Z,919.86
2019-05-09T05:08:44.296Z,920.37
2019-05-09T05:09:41.393Z,920.57
2019-05-09T05:10:41.380Z,921.06
2019-05-09T05:14:38.166Z,923.05
2019-05-09T05:15:37.758Z,924.03
2019-05-09T05:16:39.143Z,924.5
2019-05-09T05:17:37.734Z,925.08
2019-05-09T05:18:37.373Z,925.53
2019-05-09T05:19:38.189Z,925.83
2019-05-09T05:20:37.959Z,926.91
2019-05-09T05:21:37.767Z,926.89
2019-05-09T05:22:38.448Z,927.89
2019-05-09T05:23:38.053Z,928.77
2019-05-09T05:24:38.141Z,928.85
2019-05-09T05:25:38.042Z,929.39
2019-05-09T05:26:38.021Z,930.32
2019-05-09T05:27:38.187Z,930.84
2019-05-09T05:28:38.094Z,931.15
2019-05-09T05:29:38.173Z,931.5
2019-05-09T05:30:37.342Z,931.55
2019-05-09T05:31:38.540Z,932.1
2019-05-09T05:32:38.368Z,932.76
2019-05-09T05:33:38.215Z,932.91
2019-05-09T05:34:37.747Z,933.06
2019-05-09T05:35:37.526Z,933.6
2019-05-09T05:36:38.157Z,933.79
2019-05-09T05:37:38.337Z,933.86
2019-05-09T05:38:37.656Z,934.41
2019-05-09T05:39:37.472Z,935.06
2019-05-09T05:40:43.181Z,935.35
2019-05-09T05:41:37.785Z,936.24
2019-05-09T05:42:38.540Z,936.82
2019-05-09T05:43:41.377Z,937.52
2019-05-09T05:44:38.530Z,938.54
2019-05-09T05:45:37.474Z,939.36
2019-05-09T05:46:37.899Z,940.14
2019-05-09T05:47:37.924Z,940.78
2019-05-09T05:48:37.774Z,940.84
2019-05-09T05:49:38.399Z,941.29
2019-05-09T05:50:38.041Z,941.8
2019-05-09T05:51:37.915Z,942.1
2019-05-09T05:54:43.640Z,942.81
2019-05-09T05:54:57.973Z,944.57
2019-05-09T05:55:57.991Z,945.73
2019-05-09T05:56:57.785Z,946.72
2019-05-09T05:57:57.849Z,947.47
2019-05-09T05:58:58.012Z,948.42
2019-05-09T05:59:58.232Z,948.94
2019-05-09T06:00:58.565Z,949.89
2019-05-09T06:01:58.263Z,951.16
2019-05-09T06:02:58.510Z,951.91
2019-05-09T06:03:58.373Z,952.03
2019-05-09T06:04:57.854Z,952.37
2019-05-09T06:05:58.382Z,952.7
2019-05-09T06:06:58.517Z,953.4
2019-05-09T06:07:57.615Z,953.8
2019-05-09T06:08:57.881Z,954.84
2019-05-09T06:09:57.524Z,955.71
2019-05-09T06:10:57.587Z,957.31
2019-05-09T06:11:57.703Z,959.13
2019-05-09T06:12:57.496Z,963.09
2019-05-09T06:13:59.958Z,967.02
2019-05-09T06:14:58.118Z,976.09
2019-05-09T06:15:58.348Z,985.78
2019-05-09T06:16:58.436Z,1000.22
2019-05-09T06:17:57.827Z,999.3
2019-05-09T06:18:58.515Z,1001.55
2019-05-09T06:19:58.574Z,1002.86
2019-05-09T06:20:58.278Z,1003.45
2019-05-09T06:21:57.349Z,1004.49
2019-05-09T06:22:58.130Z,1005.69
2019-05-09T06:23:58.337Z,1007.08
2019-05-09T06:24:58.216Z,1007.47
2019-05-09T06:25:58.397Z,1007.43
2019-05-09T06:26:58.273Z,1007.98
2019-05-09T06:27:58.164Z,1008.79
2019-05-09T06:28:57.650Z,1009.26
2019-05-09T06:29:58.112Z,1009.25
2019-05-09T06:30:58.230Z,1009.85
2019-05-09T06:31:58.167Z,1010.81
2019-05-09T06:32:57.989Z,1014.55
2019-05-09T06:33:57.738Z,1017.78
2019-05-09T06:34:57.773Z,1020.72
2019-05-09T06:35:58.567Z,1025.49
2019-05-09T06:36:58.424Z,1029.44
2019-05-09T06:37:58.317Z,1035.45
2019-05-09T06:38:58.466Z,1044.45
2019-05-09T06:39:58.210Z,1055.53
2019-05-09T06:40:58.078Z,1062.2
2019-05-09T06:41:57.475Z,1068.92
2019-05-09T06:42:58.854Z,1073.82
2019-05-09T06:44:10.928Z,1079.36
2019-05-09T06:44:58.401Z,1086.06
2019-05-09T06:45:57.539Z,1090.84
2019-05-09T06:46:58.323Z,1092.3
2019-05-09T06:47:58.254Z,1093.25
2019-05-09T06:49:16.948Z,1094.65
2019-05-09T06:49:57.392Z,1095.93
2019-05-09T06:50:57.666Z,1099
2019-05-09T06:51:58.026Z,1101.61
2019-05-09T06:52:57.296Z,1104.44
2019-05-09T06:53:58.301Z,1107.03
2019-05-09T06:54:58.190Z,1109.04
2019-05-09T06:55:57.958Z,1110.67
2019-05-09T06:56:58.373Z,1112.04
2019-05-09T06:57:58.265Z,1113
2019-05-09T06:58:58.221Z,1113.79
2019-05-09T06:59:57.842Z,1114.13
2019-05-09T07:00:58.386Z,1114.33
2019-05-09T07:01:57.558Z,1114.01
2019-05-09T07:02:58.182Z,1113.47
2019-05-09T07:03:57.491Z,1112.87
2019-05-09T07:04:58.169Z,1113.25
2019-05-09T07:05:57.553Z,1113.88
2019-05-09T07:06:58.547Z,1114.14
2019-05-09T07:07:57.517Z,1114.48
2019-05-09T07:08:58.405Z,1114.53
2019-05-09T07:09:58.244Z,1114.66
2019-05-09T07:10:58.244Z,1114.75
2019-05-09T07:11:58.486Z,1114.81
2019-05-09T07:12:58.254Z,1114.88
2019-05-09T07:13:57.855Z,1114.89
2019-05-09T07:14:58.066Z,1114.97
2019-05-09T07:15:58.199Z,1114.89
2019-05-09T07:16:58.341Z,1114.86
2019-05-09T07:17:57.486Z,1114.77
2019-05-09T07:18:57.866Z,1114.6
2019-05-09T07:19:58.634Z,1114.4
2019-05-09T07:20:57.634Z,1114.27
2019-05-09T07:21:57.920Z,1114.03
2019-05-09T07:22:58.233Z,1113.75
2019-05-09T07:23:58.251Z,1113.47
2019-05-09T07:25:05.503Z,1113.15
2019-05-09T07:31:47.800Z,1111.15
2019-05-09T07:32:45.827Z,1110.77
2019-05-09T07:33:47.753Z,1110.21
2019-05-09T07:34:47.405Z,1109.86
2019-05-09T07:35:47.558Z,1109.78
2019-05-09T07:36:47.588Z,1109.69
2019-05-09T07:37:45.830Z,1110.49
2019-05-09T07:38:47.740Z,1109.95
2019-05-09T07:39:45.845Z,1109.63
2019-05-09T07:40:47.727Z,1109.17
2019-05-09T07:41:47.752Z,1109.51
2019-05-09T07:42:47.900Z,1109.45
2019-05-09T07:43:47.755Z,1109.76
2019-05-09T07:44:49.503Z,1109.38
2019-05-09T07:45:47.375Z,1108.71
2019-05-09T07:46:47.437Z,1109.47
2019-05-09T07:47:47.771Z,1110.76
2019-05-09T07:48:48.101Z,1111.86
2019-05-09T07:49:48.119Z,1112.51
2019-05-09T07:50:47.888Z,1113.42
2019-05-09T07:51:47.725Z,1114.11
2019-05-09T07:52:47.634Z,1114.52
2019-05-09T07:53:47.943Z,1114.68
2019-05-09T07:54:48.094Z,1114.67
2019-05-09T07:55:47.327Z,1114.7
2019-05-09T07:56:45.854Z,1114.53
2019-05-09T07:57:53.809Z,1114.43
2019-05-09T07:58:47.726Z,1114.46
2019-05-09T07:59:47.799Z,1114.53
2019-05-09T08:00:48.099Z,1114.5
2019-05-09T08:01:48.124Z,1114.38
2019-05-09T08:02:47.668Z,1114.07
2019-05-09T08:03:45.903Z,1113.8
2019-05-09T08:04:45.896Z,1113.27
2019-05-09T08:05:47.657Z,1112.82
2019-05-09T08:06:48.328Z,1112.18
2019-05-09T08:07:48.326Z,1111.48
2019-05-09T08:08:47.592Z,1110.93
2019-05-09T08:09:47.551Z,1110.1
2019-05-09T08:10:47.726Z,1109.34
2019-05-09T08:11:48.134Z,1108.26
2019-05-09T08:12:48.000Z,1107.17
2019-05-09T08:13:48.300Z,1106.11
2019-05-09T08:15:07.121Z,1104.7
2019-05-09T08:15:47.734Z,1103.52
2019-05-09T08:16:47.497Z,1102.69
2019-05-09T08:17:48.478Z,1102.39
2019-05-09T08:18:48.051Z,1101.89
2019-05-09T08:19:48.343Z,1101.6
2019-05-09T08:20:47.872Z,1101.25
2019-05-09T08:21:47.937Z,1100.98
2019-05-09T08:22:52.086Z,1101.06
2019-05-09T08:23:48.238Z,1100.94
2019-05-09T08:24:48.119Z,1100.33
2019-05-09T08:25:48.272Z,1099.56
2019-05-09T08:26:47.781Z,1099.11
2019-05-09T08:27:48.017Z,1098.79
2019-05-09T08:28:47.951Z,1098.27
2019-05-09T08:29:47.822Z,1097.59
2019-05-09T08:30:48.124Z,1096.89
2019-05-09T08:31:48.319Z,1096.42
2019-05-09T08:32:48.178Z,1095.84
2019-05-09T08:33:48.202Z,1095.36
2019-05-09T08:34:47.995Z,1095.18
2019-05-09T08:35:49.583Z,1095.32
2019-05-09T08:36:47.717Z,1095.91
2019-05-09T08:37:47.678Z,1098.35
2019-05-09T08:38:47.713Z,1100.55
2019-05-09T08:39:48.126Z,1102.03
2019-05-09T08:40:48.407Z,1103.34
2019-05-09T08:41:48.420Z,1104.39
2019-05-09T08:42:47.968Z,1105.65
2019-05-09T08:43:48.063Z,1106.2
2019-05-09T08:44:54.984Z,1106.62
2019-05-09T08:45:48.243Z,1107.18
2019-05-09T08:46:47.859Z,1107.97
2019-05-09T08:47:48.236Z,1108.88
2019-05-09T08:48:48.186Z,1109.6
2019-05-09T08:49:47.215Z,1110.05
2019-05-09T08:50:48.098Z,1109.64
2019-05-09T08:51:54.827Z,1109.62
2019-05-09T08:52:47.977Z,1109.47
2019-05-09T08:53:48.148Z,1109.44
2019-05-09T08:54:48.293Z,1109.18
2019-05-09T08:55:47.456Z,1108.9
2019-05-09T08:56:47.585Z,1108.76
2019-05-09T08:57:48.008Z,1109.09
2019-05-09T08:58:48.150Z,1109.56
2019-05-09T08:59:47.964Z,1110.11
2019-05-09T09:00:45.991Z,1111.15
2019-05-09T09:02:07.687Z,1111.87
2019-05-09T09:02:47.930Z,1112.79
2019-05-09T09:03:48.193Z,1113.35
2019-05-09T09:04:48.490Z,1113.27
2019-05-09T09:05:48.346Z,1113.15
2019-05-09T09:06:48.099Z,1112.99
2019-05-09T09:07:48.172Z,1112.72
2019-05-09T09:08:48.022Z,1112.98
2019-05-09T09:09:47.990Z,1113.79
2019-05-09T09:10:48.475Z,1114.26
2019-05-09T09:11:47.802Z,1114.52
2019-05-09T09:12:47.675Z,1114.48
2019-05-09T09:13:48.030Z,1114.47
2019-05-09T09:14:58.543Z,1114.48
2019-05-09T09:16:04.418Z,1114.36
2019-05-09T09:16:47.567Z,1114.34
2019-05-09T09:17:46.005Z,1114.35
2019-05-09T09:18:47.981Z,1114.42
2019-05-09T09:19:47.788Z,1114.34
2019-05-09T09:20:48.216Z,1114.14
2019-05-09T09:21:47.493Z,1113.83
2019-05-09T09:22:47.962Z,1113.78
2019-05-09T09:23:47.871Z,1113.38
2019-05-09T09:24:47.885Z,1112.74
2019-05-09T09:25:48.342Z,1112.41
2019-05-09T09:26:47.881Z,1112.26
2019-05-09T09:27:50.231Z,1112.44
2019-05-09T09:28:48.154Z,1112.39
2019-05-09T09:29:48.054Z,1112.09
2019-05-09T09:30:48.027Z,1112.04
2019-05-09T09:35:19.698Z,1110.95
2019-05-09T09:36:19.671Z,1111.43
2019-05-09T09:37:19.690Z,1111.98
2019-05-09T09:38:19.700Z,1112.56
2019-05-09T09:39:19.667Z,1113.05
2019-05-09T09:40:19.681Z,1113.41
2019-05-09T09:41:19.680Z,1113.7
2019-05-09T09:42:20.197Z,1113.91
2019-05-09T09:43:19.686Z,1114.19
2019-05-09T09:44:22.403Z,1114.27
2019-05-09T09:45:19.686Z,1114.41
2019-05-09T09:46:19.676Z,1114.39
2019-05-09T09:47:23.216Z,1114.33
2019-05-09T09:48:19.686Z,1114.4
2019-05-09T09:49:19.697Z,1114.31
2019-05-09T09:50:19.699Z,1114.26
2019-05-09T09:51:19.690Z,1114.02
2019-05-09T09:52:19.719Z,1113.86
2019-05-09T09:53:19.719Z,1113.51
2019-05-09T09:54:19.690Z,1113.15
2019-05-09T09:55:19.714Z,1112.92
2019-05-09T09:56:22.146Z,1112.65
2019-05-09T09:57:19.710Z,1112.54
2019-05-09T09:58:19.735Z,1112.53
2019-05-09T09:59:19.701Z,1112.71
2019-05-09T10:00:19.706Z,1112.86
2019-05-09T10:01:19.731Z,1112.82
2019-05-09T10:02:19.701Z,1112.74
2019-05-09T10:03:19.703Z,1112.83
2019-05-09T10:04:24.124Z,1113.13
2019-05-09T10:05:19.717Z,1113.55
2019-05-09T10:06:19.730Z,1113.92
2019-05-09T10:07:19.730Z,1113.99
2019-05-09T10:08:19.719Z,1114.29
2019-05-09T10:09:19.730Z,1114.44
2019-05-09T10:10:19.730Z,1114.35
2019-05-09T10:11:19.719Z,1114.23
2019-05-09T10:12:19.749Z,1114.02
2019-05-09T10:13:19.735Z,1113.89
2019-05-09T10:14:19.742Z,1113.69
2019-05-09T10:15:19.728Z,1113.7
2019-05-09T10:16:28.638Z,1113.77
2019-05-09T10:17:21.583Z,1113.76
2019-05-09T10:18:19.740Z,1113.48
2019-05-09T10:19:19.797Z,1113.06
2019-05-09T10:20:19.733Z,1112.33
2019-05-09T10:21:19.762Z,1111.53
2019-05-09T10:22:23.249Z,1111.15
2019-05-09T10:23:21.553Z,1111.38
2019-05-09T10:24:19.742Z,1111.26
2019-05-09T10:25:19.750Z,1110.77
2019-05-09T10:26:19.762Z,1110.67
2019-05-09T10:27:19.788Z,1111.08
2019-05-09T10:28:21.811Z,1111.65
2019-05-09T10:29:19.762Z,1112.29
2019-05-09T10:30:19.758Z,1112.73
2019-05-09T10:31:19.774Z,1113.05
2019-05-09T10:32:19.772Z,1113.35
2019-05-09T10:33:19.769Z,1113.67
2019-05-09T10:34:20.109Z,1113.85
2019-05-09T10:35:19.756Z,1113.95
2019-05-09T10:36:19.762Z,1114.07
2019-05-09T10:37:19.766Z,1114.08
2019-05-09T10:38:19.771Z,1114.18
2019-05-09T10:39:19.787Z,1114.24
2019-05-09T10:40:19.804Z,1114.24
2019-05-09T10:41:19.773Z,1114.28
2019-05-09T10:42:19.782Z,1114.27
2019-05-09T10:43:34.315Z,1114.32
2019-05-09T10:44:19.795Z,1114.32
2019-05-09T10:45:19.826Z,1114.15
2019-05-09T10:49:49.585Z,1114.16
2019-05-09T10:50:53.717Z,1114.08
2019-05-09T10:51:49.531Z,1114.04
2019-05-09T10:52:49.538Z,1114.17
2019-05-09T10:53:49.550Z,1114.23
2019-05-09T10:54:49.566Z,1114.26
2019-05-09T10:55:49.525Z,1114.28
2019-05-09T10:56:49.545Z,1114.28
2019-05-09T10:57:51.987Z,1114.3
2019-05-09T10:58:49.565Z,1114.29
2019-05-09T10:59:49.543Z,1114.25
2019-05-09T11:00:49.582Z,1114.12
2019-05-09T11:05:20.015Z,1113.37
2019-05-09T11:06:20.025Z,1113.2
2019-05-09T11:07:20.024Z,1113.08
2019-05-09T11:08:20.015Z,1112.88
2019-05-09T11:09:19.999Z,1112.93
2019-05-09T11:10:27.674Z,1112.84
2019-05-09T11:11:20.050Z,1112.6
2019-05-09T11:12:20.037Z,1112.35
2019-05-09T11:13:20.028Z,1112.35
2019-05-09T11:14:31.888Z,1112.12
2019-05-09T11:15:20.027Z,1111.83
2019-05-09T11:16:20.013Z,1111.66
2019-05-09T11:17:21.876Z,1111.65
2019-05-09T11:18:20.207Z,1111.75
2019-05-09T11:19:20.041Z,1111.99
2019-05-09T11:20:20.039Z,1112.11
2019-05-09T11:21:20.022Z,1112.24
2019-05-09T11:22:23.234Z,1112.88
2019-05-09T11:23:20.058Z,1113.29
2019-05-09T11:24:20.050Z,1113.69
2019-05-09T11:25:20.034Z,1113.81
2019-05-09T11:26:20.054Z,1113.92
2019-05-09T11:27:20.060Z,1113.98
2019-05-09T11:28:20.032Z,1114.09
2019-05-09T11:29:20.034Z,1114.11
2019-05-09T11:30:20.061Z,1114.13
2019-05-09T11:31:20.269Z,1114.09
2019-05-09T11:32:20.045Z,1114.09
2019-05-09T11:33:20.085Z,1114.04
2019-05-09T11:34:20.062Z,1113.97
2019-05-09T11:35:20.085Z,1113.79
2019-05-09T11:36:21.085Z,1113.47
2019-05-09T11:37:22.178Z,1112.96
2019-05-09T11:38:31.964Z,1112.65
2019-05-09T11:39:35.064Z,1112.1
2019-05-09T11:41:11.621Z,1110.87
2019-05-09T11:42:11.602Z,1110.01
2019-05-09T11:43:11.589Z,1109.3
2019-05-09T11:44:11.616Z,1108.47
2019-05-09T11:45:11.626Z,1107.62
2019-05-09T11:46:11.611Z,1107.11
2019-05-09T11:47:28.366Z,1106.58
2019-05-09T11:48:11.916Z,1106.35
2019-05-09T11:49:11.595Z,1106.39
2019-05-09T11:50:11.661Z,1106.94
2019-05-09T11:51:11.602Z,1108.28
2019-05-09T11:52:11.631Z,1109.16
2019-05-09T11:53:11.646Z,1110.25
2019-05-09T11:54:11.604Z,1110.84
2019-05-09T11:55:28.428Z,1111.26
2019-05-09T11:56:11.622Z,1111.55
2019-05-09T11:57:13.079Z,1111.73
2019-05-09T11:58:11.636Z,1111.86
2019-05-09T11:59:11.639Z,1112.2
2019-05-09T12:00:11.977Z,1112.72
2019-05-09T12:01:11.640Z,1112.6
2019-05-09T12:02:11.620Z,1112.28
2019-05-09T12:03:11.624Z,1111.99
2019-05-09T12:04:11.669Z,1111.63
2019-05-09T12:05:11.653Z,1111.29
2019-05-09T12:06:11.664Z,1111.2
2019-05-09T12:07:11.637Z,1111.26
2019-05-09T12:08:11.656Z,1111.07
2019-05-09T12:09:14.586Z,1110.79
2019-05-09T12:10:11.775Z,1110.44
2019-05-09T12:11:11.662Z,1110.11
2019-05-09T12:12:11.694Z,1109.61
2019-05-09T12:13:11.715Z,1109.32
2019-05-09T12:14:12.026Z,1108.79
2019-05-09T12:15:15.169Z,1108.4
2019-05-09T12:16:12.801Z,1107.81
2019-05-09T12:17:14.790Z,1107.3
2019-05-09T12:18:11.945Z,1106.85
2019-05-09T12:19:11.666Z,1106.23
2019-05-09T12:20:13.515Z,1105.58
2019-05-09T12:21:11.721Z,1104.82
2019-05-09T12:22:11.705Z,1103.77
2019-05-09T12:23:11.691Z,1102.87
2019-05-09T12:24:12.725Z,1101.63
2019-05-09T12:25:13.512Z,1100.47
2019-05-09T12:26:13.145Z,1099.19
2019-05-09T12:27:11.658Z,1097.99
2019-05-09T12:28:11.689Z,1096.84
2019-05-09T12:29:11.723Z,1095.51
2019-05-09T12:30:11.687Z,1094.49
2019-05-09T12:31:11.745Z,1093.39
2019-05-09T12:32:11.703Z,1092.62
2019-05-09T12:33:14.094Z,1091.95
2019-05-09T12:34:15.062Z,1091.13
2019-05-09T12:35:14.360Z,1090.24
2019-05-09T12:36:11.714Z,1089.17
2019-05-09T12:37:11.711Z,1088.1
2019-05-09T12:38:11.730Z,1087.19
2019-05-09T12:39:11.698Z,1086.23
2019-05-09T12:40:11.742Z,1085.71
2019-05-09T12:41:11.691Z,1084.92
2019-05-09T12:42:11.733Z,1084.23
2019-05-09T12:43:11.710Z,1083.49
2019-05-09T12:44:11.828Z,1082.89
2019-05-09T12:45:15.327Z,1082.3
2019-05-09T12:46:11.719Z,1082.1
2019-05-09T12:47:11.703Z,1081.83
2019-05-09T12:48:15.423Z,1081.73
2019-05-09T12:49:11.697Z,1081.98
2019-05-09T12:50:14.173Z,1082.59
2019-05-09T12:51:11.717Z,1083.36
2019-05-09T12:52:11.698Z,1084.36
2019-05-09T12:53:13.861Z,1085.73
2019-05-09T12:54:11.715Z,1087.79
2019-05-09T12:55:12.893Z,1089.93